Time;durP1;ratioP1;P1;durP2;ratioP2;P2;SDS_P1;SDS_P2;PMS_P1;PMS_P2;Temp;Humidity;BMP_temperature;BMP_pressure;BME280_temperature;BME280_humidity;BME280_pressure;Samples;Min_cycle;Max_cycle;Signal;HPM_P1;HPM_P2
2024/04/12 00:01:03;;;;;;;13.10;8.28;;;;;;;;;;1924665;74;21089;-45
2024/04/12 00:03:32;;;;;;;7.90;6.92;;;;;;;;;;1924645;74;21097;-46
2024/04/12 00:06:05;;;;;;;9.48;7.40;;;;;;;;;;1924827;74;21006;-45
2024/04/12 00:08:30;;;;;;;9.90;7.30;;;;;;;;;;1924269;74;21493;-45
2024/04/12 00:11:00;;;;;;;11.18;8.13;;;;;;;;;;1924675;74;21054;-47
2024/04/12 00:13:31;;;;;;;11.55;7.85;;;;;;;;;;1924708;74;21111;-45
2024/04/12 00:15:59;;;;;;;12.40;8.55;;;;;;;;;;1924655;74;21441;-45
2024/04/12 00:18:28;;;;;;;14.43;7.78;;;;;;;;;;1924692;74;21064;-45
2024/04/12 00:21:01;;;;;;;10.00;7.15;;;;;;;;;;1924779;74;21097;-45
2024/04/12 00:23:30;;;;;;;12.37;7.97;;;;;;;;;;1924694;74;21068;-45
2024/04/12 00:26:01;;;;;;;10.65;7.10;;;;;;;;;;1924762;74;21003;-45
2024/04/12 00:28:30;;;;;;;10.30;7.30;;;;;;;;;;1924794;74;21006;-45
2024/04/12 00:31:02;;;;;;;15.58;8.33;;;;;;;;;;1924735;74;21085;-45
2024/04/12 00:33:32;;;;;;;11.48;7.22;;;;;;;;;;1924840;74;21038;-45
2024/04/12 00:36:07;;;;;;;13.28;7.65;;;;;;;;;;1924794;74;21092;-45
2024/04/12 00:38:36;;;;;;;9.60;7.25;;;;;;;;;;1924842;74;21062;-45
2024/04/12 00:41:20;;;;;;;9.18;7.12;;;;;;;;;;1924690;74;21175;-45
2024/04/12 00:43:52;;;;;;;11.63;7.25;;;;;;;;;;1924760;74;21082;-45
2024/04/12 00:46:23;;;;;;;11.40;7.62;;;;;;;;;;1924887;74;21485;-45
2024/04/12 00:48:52;;;;;;;10.38;7.35;;;;;;;;;;1924853;74;21015;-45
2024/04/12 00:51:22;;;;;;;9.63;6.83;;;;;;;;;;1924725;74;21057;-45
2024/04/12 00:53:51;;;;;;;14.23;7.20;;;;;;;;;;1924815;74;21151;-45
2024/04/12 00:56:21;;;;;;;8.93;7.37;;;;;;;;;;1924468;74;21539;-45
2024/04/12 00:58:50;;;;;;;11.93;6.55;;;;;;;;;;1924777;74;21034;-45
2024/04/12 01:01:18;;;;;;;16.30;7.65;;;;;;;;;;1924706;74;21105;-45
2024/04/12 01:03:47;;;;;;;9.30;6.90;;;;;;;;;;1924775;74;21075;-45
2024/04/12 01:06:18;;;;;;;11.55;6.42;;;;;;;;;;1924779;74;21128;-44
2024/04/12 01:08:46;;;;;;;27.25;9.23;;;;;;;;;;1924883;74;21124;-45
2024/04/12 01:11:15;;;;;;;299.00;30.80;;;;;;;;;;1922169;74;21073;-45
2024/04/12 01:13:44;;;;;;;133.72;16.95;;;;;;;;;;1905437;75;21016;-45
2024/04/12 01:16:14;;;;;;;105.45;15.32;;;;;;;;;;1905324;75;21521;-45
2024/04/12 01:18:42;;;;;;;98.52;14.45;;;;;;;;;;1905436;75;21011;-45
2024/04/12 01:21:11;;;;;;;78.80;14.23;;;;;;;;;;1905382;75;21093;-45
2024/04/12 01:23:42;;;;;;;79.32;14.20;;;;;;;;;;1905483;75;21061;-45
2024/04/12 01:26:11;;;;;;;101.78;14.47;;;;;;;;;;1905274;75;21008;-45
2024/04/12 01:28:43;;;;;;;67.65;11.60;;;;;;;;;;1905315;74;21081;-46
2024/04/12 01:31:15;;;;;;;25.72;8.13;;;;;;;;;;1905296;75;21011;-45
2024/04/12 01:33:48;;;;;;;21.27;8.60;;;;;;;;;;1905339;75;21019;-45
2024/04/12 01:36:17;;;;;;;50.43;11.53;;;;;;;;;;1905187;74;21074;-45
2024/04/12 01:38:53;;;;;;;50.08;10.35;;;;;;;;;;1905370;75;21039;-45
2024/04/12 01:41:21;;;;;;;40.08;9.65;;;;;;;;;;1904721;74;21571;-45
2024/04/12 01:43:52;;;;;;;25.12;8.58;;;;;;;;;;1905088;74;21478;-45
2024/04/12 01:46:17;;;;;;;24.32;9.20;;;;;;;;;;1904882;74;21618;-45
2024/04/12 01:48:46;;;;;;;25.08;8.90;;;;;;;;;;1905306;75;21008;-45
2024/04/12 01:51:16;;;;;;;24.95;8.48;;;;;;;;;;1905198;75;21016;-45
2024/04/12 01:53:45;;;;;;;24.20;8.35;;;;;;;;;;1905223;75;21004;-45
2024/04/12 01:56:14;;;;;;;17.25;7.15;;;;;;;;;;1905200;75;21083;-45
2024/04/12 01:58:42;;;;;;;19.48;7.83;;;;;;;;;;1905301;75;21007;-46
2024/04/12 02:01:11;;;;;;;20.08;8.45;;;;;;;;;;1905234;75;21097;-45
2024/04/12 02:03:40;;;;;;;21.15;8.58;;;;;;;;;;1905223;75;20992;-46
2024/04/12 02:06:09;;;;;;;20.10;7.03;;;;;;;;;;1905352;75;21000;-46
2024/04/12 02:08:38;;;;;;;18.12;8.15;;;;;;;;;;1905275;75;21008;-45
2024/04/12 02:11:07;;;;;;;18.57;7.45;;;;;;;;;;1905278;75;21106;-45
2024/04/12 02:13:37;;;;;;;25.92;9.75;;;;;;;;;;1905359;75;21160;-45
2024/04/12 02:16:06;;;;;;;22.15;8.90;;;;;;;;;;1905291;75;21090;-45
2024/04/12 02:18:34;;;;;;;21.65;8.08;;;;;;;;;;1905384;75;21027;-45
2024/04/12 02:21:10;;;;;;;13.90;9.18;;;;;;;;;;1905152;75;21066;-45
2024/04/12 02:23:34;;;;;;;19.85;8.18;;;;;;;;;;1903103;74;21532;-48
2024/04/12 02:26:02;;;;;;;18.65;8.98;;;;;;;;;;1905275;75;21160;-47
2024/04/12 02:28:31;;;;;;;13.85;8.75;;;;;;;;;;1905368;75;21047;-48
2024/04/12 02:31:01;;;;;;;14.73;8.70;;;;;;;;;;1905190;75;21520;-48
2024/04/12 02:33:31;;;;;;;14.47;8.10;;;;;;;;;;1905338;75;21070;-47
2024/04/12 02:36:11;;;;;;;15.20;8.33;;;;;;;;;;1905246;75;21071;-45
2024/04/12 02:38:34;;;;;;;15.15;10.15;;;;;;;;;;1899781;74;21493;-46
2024/04/12 02:41:03;;;;;;;17.23;9.15;;;;;;;;;;1905130;75;21087;-45
2024/04/12 02:43:32;;;;;;;14.90;8.28;;;;;;;;;;1905144;75;21106;-45
2024/04/12 02:46:03;;;;;;;13.72;7.75;;;;;;;;;;1905110;75;21093;-46
2024/04/12 02:48:33;;;;;;;13.83;8.60;;;;;;;;;;1905197;75;21085;-45
2024/04/12 02:51:06;;;;;;;18.00;9.53;;;;;;;;;;1905188;75;21090;-45
2024/04/12 02:53:32;;;;;;;15.88;9.85;;;;;;;;;;1903354;74;21575;-45
2024/04/12 02:56:02;;;;;;;24.75;12.23;;;;;;;;;;1905144;75;21028;-45
2024/04/12 02:58:51;;;;;;;28.60;10.10;;;;;;;;;;1904275;74;21047;-45
2024/04/12 03:01:04;;;;;;;22.60;11.95;;;;;;;;;;1893845;74;21466;-45
2024/04/12 03:03:32;;;;;;;27.32;11.20;;;;;;;;;;1905225;75;21028;-45
2024/04/12 03:06:01;;;;;;;24.90;11.00;;;;;;;;;;1905224;75;21028;-45
2024/04/12 03:08:32;;;;;;;29.85;14.38;;;;;;;;;;1905201;75;21086;-45
2024/04/12 03:11:22;;;;;;;23.35;13.88;;;;;;;;;;1905203;75;21477;-45
2024/04/12 03:13:51;;;;;;;30.97;14.58;;;;;;;;;;1920830;74;21058;-45
2024/04/12 03:16:20;;;;;;;19.15;12.25;;;;;;;;;;1924574;74;21084;-44
2024/04/12 03:18:51;;;;;;;21.37;12.40;;;;;;;;;;1924618;74;21092;-45
2024/04/12 03:21:27;;;;;;;23.52;11.43;;;;;;;;;;1924335;74;21038;-45
2024/04/12 03:23:54;;;;;;;28.62;13.38;;;;;;;;;;1922651;74;21568;-45
2024/04/12 03:26:23;;;;;;;22.35;11.30;;;;;;;;;;1924552;74;21074;-45
2024/04/12 03:28:59;;;;;;;20.02;11.73;;;;;;;;;;1924582;74;21034;-45
2024/04/12 03:31:26;;;;;;;30.60;13.40;;;;;;;;;;1922600;74;21039;-44
2024/04/12 03:33:56;;;;;;;15.78;9.78;;;;;;;;;;1924607;74;21088;-45
2024/04/12 03:36:29;;;;;;;13.75;10.03;;;;;;;;;;1923845;74;21011;-45
2024/04/12 03:41:44;;;;;;;15.15;9.20;;;;;;;;;;1924555;74;21097;-46
2024/04/12 03:44:18;;;;;;;22.30;10.15;;;;;;;;;;1924593;74;21027;-45
2024/04/12 03:46:49;;;;;;;14.33;10.05;;;;;;;;;;1924660;74;21051;-45
2024/04/12 03:49:20;;;;;;;16.10;9.85;;;;;;;;;;1924528;74;21544;-45
2024/04/12 03:51:49;;;;;;;18.45;10.53;;;;;;;;;;1924374;74;21480;-45
2024/04/12 03:54:18;;;;;;;18.30;10.75;;;;;;;;;;1924665;74;21129;-47
2024/04/12 03:56:49;;;;;;;18.00;9.73;;;;;;;;;;1924583;74;21015;-45
2024/04/12 03:59:19;;;;;;;15.68;10.43;;;;;;;;;;1924591;74;21031;-45
2024/04/12 04:01:48;;;;;;;18.27;9.83;;;;;;;;;;1924620;74;21058;-45
2024/04/12 04:04:18;;;;;;;19.37;10.28;;;;;;;;;;1924075;74;21082;-45
2024/04/12 04:06:48;;;;;;;18.95;10.32;;;;;;;;;;1924535;74;21002;-45
2024/04/12 04:09:21;;;;;;;16.35;9.90;;;;;;;;;;1924575;74;21070;-47
2024/04/12 04:11:55;;;;;;;16.07;10.13;;;;;;;;;;1924690;74;21022;-46
2024/04/12 04:14:27;;;;;;;17.98;10.15;;;;;;;;;;1924768;74;21023;-46
2024/04/12 04:17:00;;;;;;;15.90;10.05;;;;;;;;;;1924707;74;21005;-46
2024/04/12 04:19:33;;;;;;;18.52;10.10;;;;;;;;;;1924746;74;21078;-46
2024/04/12 04:22:03;;;;;;;12.90;9.38;;;;;;;;;;1924781;74;21018;-46
2024/04/12 04:24:37;;;;;;;17.37;10.58;;;;;;;;;;1924671;74;21057;-46
2024/04/12 04:27:08;;;;;;;19.98;10.15;;;;;;;;;;1924668;74;21522;-46
2024/04/12 04:29:37;;;;;;;17.48;10.45;;;;;;;;;;1924688;74;21111;-46
2024/04/12 04:32:09;;;;;;;17.10;10.60;;;;;;;;;;1924678;74;21014;-46
2024/04/12 04:34:37;;;;;;;20.25;10.85;;;;;;;;;;1924647;74;21119;-46
2024/04/12 04:37:05;;;;;;;19.65;9.18;;;;;;;;;;1924643;74;21014;-45
2024/04/12 04:39:35;;;;;;;16.85;10.72;;;;;;;;;;1924668;74;21569;-45
2024/04/12 04:42:05;;;;;;;13.75;9.88;;;;;;;;;;1924635;74;21039;-46
2024/04/12 04:44:35;;;;;;;20.70;10.40;;;;;;;;;;1924658;74;21053;-46
2024/04/12 04:47:03;;;;;;;14.35;9.48;;;;;;;;;;1924669;74;21465;-46
2024/04/12 04:49:32;;;;;;;19.95;10.48;;;;;;;;;;1924639;74;21069;-46
2024/04/12 04:52:01;;;;;;;21.27;11.28;;;;;;;;;;1924651;74;21042;-46
2024/04/12 04:54:30;;;;;;;25.10;11.03;;;;;;;;;;1924643;74;20995;-46
2024/04/12 04:57:00;;;;;;;16.15;9.23;;;;;;;;;;1924599;74;21023;-46
2024/04/12 04:59:32;;;;;;;17.50;10.30;;;;;;;;;;1924725;74;21007;-46
2024/04/12 05:02:01;;;;;;;23.75;10.13;;;;;;;;;;1924580;74;21030;-45
2024/04/12 05:04:33;;;;;;;29.60;10.55;;;;;;;;;;1924600;74;21010;-46
2024/04/12 05:07:02;;;;;;;22.85;11.45;;;;;;;;;;1924685;74;21088;-45
2024/04/12 05:09:32;;;;;;;11.57;8.15;;;;;;;;;;1924661;74;21065;-45
2024/04/12 05:12:02;;;;;;;16.30;9.33;;;;;;;;;;1924572;74;21082;-46
2024/04/12 05:17:07;;;;;;;23.67;9.98;;;;;;;;;;1924642;74;21011;-45
2024/04/12 05:19:47;;;;;;;16.42;8.23;;;;;;;;;;1924547;74;21030;-46
2024/04/12 05:22:13;;;;;;;16.45;9.00;;;;;;;;;;1923013;74;21477;-45
2024/04/12 05:24:42;;;;;;;19.35;8.38;;;;;;;;;;1924599;74;21114;-45
2024/04/12 05:27:11;;;;;;;11.93;6.85;;;;;;;;;;1924585;74;21010;-46
2024/04/12 05:29:46;;;;;;;14.45;7.80;;;;;;;;;;1924504;74;21152;-45
2024/04/12 05:32:10;;;;;;;30.65;8.93;;;;;;;;;;1922183;74;21542;-46
2024/04/12 05:34:40;;;;;;;13.58;7.03;;;;;;;;;;1924606;74;21034;-45
2024/04/12 05:37:09;;;;;;;11.70;7.00;;;;;;;;;;1924637;74;21093;-44
2024/04/12 05:39:41;;;;;;;8.05;6.17;;;;;;;;;;1924648;74;21070;-45
2024/04/12 05:42:07;;;;;;;12.33;6.30;;;;;;;;;;1924365;74;21074;-48
2024/04/12 05:44:41;;;;;;;12.40;7.40;;;;;;;;;;1924608;74;21074;-46
2024/04/12 05:47:10;;;;;;;12.03;6.37;;;;;;;;;;1924792;74;21039;-46
2024/04/12 05:49:39;;;;;;;27.32;7.47;;;;;;;;;;1924694;74;22172;-46
2024/04/12 05:52:08;;;;;;;13.53;6.50;;;;;;;;;;1924676;74;21122;-46
2024/04/12 05:54:40;;;;;;;20.95;7.22;;;;;;;;;;1924717;74;21022;-47
2024/04/12 05:57:10;;;;;;;12.73;6.58;;;;;;;;;;1924730;74;21039;-46
2024/04/12 05:59:45;;;;;;;15.00;6.50;;;;;;;;;;1924745;74;21520;-46
2024/04/12 06:02:16;;;;;;;10.00;5.95;;;;;;;;;;1924713;74;21031;-46
2024/04/12 06:04:47;;;;;;;12.95;7.85;;;;;;;;;;1924516;74;21034;-46
2024/04/12 06:07:16;;;;;;;13.03;7.08;;;;;;;;;;1924691;74;21069;-46
2024/04/12 06:09:47;;;;;;;15.75;7.83;;;;;;;;;;1924669;74;20979;-46
2024/04/12 06:12:16;;;;;;;13.32;7.83;;;;;;;;;;1924589;74;21550;-46
2024/04/12 06:14:45;;;;;;;16.97;7.87;;;;;;;;;;1924576;74;21063;-46
2024/04/12 06:17:15;;;;;;;15.65;8.75;;;;;;;;;;1924658;74;21064;-46
2024/04/12 06:19:43;;;;;;;18.95;9.28;;;;;;;;;;1924759;74;21018;-46
2024/04/12 06:22:15;;;;;;;14.10;7.78;;;;;;;;;;1924686;74;21080;-48
2024/04/12 06:24:48;;;;;;;21.57;9.35;;;;;;;;;;1924647;74;21002;-47
2024/04/12 06:27:14;;;;;;;17.80;10.25;;;;;;;;;;1924246;74;21457;-49
2024/04/12 06:29:46;;;;;;;16.35;9.00;;;;;;;;;;1924629;74;21108;-49
2024/04/12 06:32:16;;;;;;;20.48;10.13;;;;;;;;;;1924453;74;21476;-49
2024/04/12 06:34:43;;;;;;;17.32;10.18;;;;;;;;;;1924580;74;21534;-47
2024/04/12 06:37:15;;;;;;;23.20;12.03;;;;;;;;;;1924573;74;21088;-46
2024/04/12 06:39:43;;;;;;;21.42;9.98;;;;;;;;;;1924360;74;21523;-48
2024/04/12 06:42:12;;;;;;;21.77;10.72;;;;;;;;;;1924406;74;21022;-46
2024/04/12 06:44:42;;;;;;;15.45;8.68;;;;;;;;;;1924492;74;21102;-46
2024/04/12 06:47:13;;;;;;;21.68;9.80;;;;;;;;;;1924521;74;20987;-46
2024/04/12 06:49:44;;;;;;;16.90;10.20;;;;;;;;;;1924535;74;21476;-46
2024/04/12 06:52:11;;;;;;;14.65;8.28;;;;;;;;;;1924306;74;21596;-46
2024/04/12 06:54:42;;;;;;;14.30;8.43;;;;;;;;;;1924586;74;21084;-46
2024/04/12 06:57:18;;;;;;;14.47;8.43;;;;;;;;;;1924606;74;21089;-46
2024/04/12 06:59:47;;;;;;;12.00;7.65;;;;;;;;;;1924744;74;21031;-46
2024/04/12 07:02:23;;;;;;;16.20;8.75;;;;;;;;;;1924556;74;21112;-46
2024/04/12 07:04:47;;;;;;;15.68;8.98;;;;;;;;;;1923783;74;21441;-46
2024/04/12 07:07:22;;;;;;;21.37;9.03;;;;;;;;;;1924568;74;21084;-46
2024/04/12 07:09:45;;;;;;;18.02;8.15;;;;;;;;;;1923888;74;21546;-46
2024/04/12 07:12:14;;;;;;;19.42;8.73;;;;;;;;;;1924584;74;21037;-46
2024/04/12 07:14:46;;;;;;;31.25;11.12;;;;;;;;;;1918230;74;21032;-46
2024/04/12 07:17:31;;;;;;;12.43;7.92;;;;;;;;;;1905167;75;21689;-46
2024/04/12 07:19:50;;;;;;;11.73;7.65;;;;;;;;;;1894437;74;21470;-46
2024/04/12 07:22:22;;;;;;;19.77;10.68;;;;;;;;;;1905263;75;21079;-46
2024/04/12 07:24:51;;;;;;;21.95;9.98;;;;;;;;;;1905269;75;20975;-46
2024/04/12 07:27:27;;;;;;;14.78;8.03;;;;;;;;;;1905271;75;21059;-48
2024/04/12 07:29:54;;;;;;;18.27;9.15;;;;;;;;;;1905224;74;21039;-46
2024/04/12 07:32:23;;;;;;;11.85;8.60;;;;;;;;;;1905309;75;21024;-47
2024/04/12 07:34:52;;;;;;;17.92;8.20;;;;;;;;;;1905244;75;21051;-47
2024/04/12 07:37:27;;;;;;;22.27;9.93;;;;;;;;;;1905202;75;21032;-48
2024/04/12 07:40:18;;;;;;;28.05;8.38;;;;;;;;;;1905152;75;21081;-46
2024/04/12 07:42:27;;;;;;;16.15;10.70;;;;;;;;;;1889213;74;21047;-47
2024/04/12 07:44:59;;;;;;;14.35;9.20;;;;;;;;;;1905250;75;21011;-46
2024/04/12 07:47:29;;;;;;;38.75;11.57;;;;;;;;;;1905470;75;21410;-46
2024/04/12 07:49:59;;;;;;;19.90;10.20;;;;;;;;;;1905276;75;21469;-46
2024/04/12 07:52:27;;;;;;;14.85;8.75;;;;;;;;;;1905314;75;21011;-46
2024/04/12 07:54:56;;;;;;;11.83;8.90;;;;;;;;;;1905320;75;21035;-46
2024/04/12 07:57:25;;;;;;;12.45;7.55;;;;;;;;;;1905422;75;21077;-46
2024/04/12 07:59:55;;;;;;;16.17;9.03;;;;;;;;;;1905295;75;20984;-46
2024/04/12 08:02:23;;;;;;;11.78;7.60;;;;;;;;;;1905314;75;21481;-46
2024/04/12 08:04:54;;;;;;;13.58;7.87;;;;;;;;;;1905239;75;21011;-46
2024/04/12 08:07:29;;;;;;;16.75;8.05;;;;;;;;;;1905270;75;21051;-46
2024/04/12 08:10:09;;;;;;;50.20;12.63;;;;;;;;;;1904812;74;21446;-47
2024/04/12 08:12:31;;;;;;;15.83;8.78;;;;;;;;;;1903731;74;21465;-45
2024/04/12 08:14:53;;;;;;;17.30;7.83;;;;;;;;;;1906954;74;22032;-45
2024/04/12 08:17:25;;;;;;;13.13;8.40;;;;;;;;;;1924774;74;21088;-45
2024/04/12 08:20:12;;;;;;;17.32;7.72;;;;;;;;;;1924758;74;21019;-46
2024/04/12 08:22:33;;;;;;;14.10;8.47;;;;;;;;;;1923044;74;21151;-46
2024/04/12 08:24:58;;;;;;;23.47;8.40;;;;;;;;;;1924402;74;21280;-45
2024/04/12 08:27:26;;;;;;;13.00;6.87;;;;;;;;;;1924764;74;21031;-48
2024/04/12 08:29:56;;;;;;;13.60;8.45;;;;;;;;;;1924737;74;21035;-46
2024/04/12 08:32:33;;;;;;;12.50;7.60;;;;;;;;;;1924766;74;21014;-46
2024/04/12 08:35:06;;;;;;;11.20;7.00;;;;;;;;;;1924731;74;21076;-46
2024/04/12 08:37:37;;;;;;;27.58;8.38;;;;;;;;;;1924613;73;21614;-46
2024/04/12 08:40:12;;;;;;;16.48;6.75;;;;;;;;;;1924492;74;21094;-46
2024/04/12 08:42:33;;;;;;;12.85;7.20;;;;;;;;;;1919289;74;21531;-46
2024/04/12 08:45:12;;;;;;;11.80;7.28;;;;;;;;;;1924773;74;21036;-49
2024/04/12 08:47:36;;;;;;;12.75;6.30;;;;;;;;;;1923956;74;21436;-46
2024/04/12 08:50:13;;;;;;;11.83;7.30;;;;;;;;;;1924633;74;21007;-46
2024/04/12 08:52:43;;;;;;;10.93;7.08;;;;;;;;;;1924274;74;21090;-46
2024/04/12 08:55:15;;;;;;;13.88;7.40;;;;;;;;;;1923185;74;21042;-47
2024/04/12 08:57:44;;;;;;;11.88;6.25;;;;;;;;;;1924062;74;21031;-53
2024/04/12 09:00:18;;;;;;;25.90;15.25;;;;;;;;;;1923998;74;21015;-51
2024/04/12 09:02:51;;;;;;;10.95;7.03;;;;;;;;;;1923878;74;21164;-48
2024/04/12 09:05:22;;;;;;;14.20;7.85;;;;;;;;;;1924042;74;21100;-51
2024/04/12 09:07:50;;;;;;;17.98;8.80;;;;;;;;;;1923867;73;21085;-51
2024/04/12 09:10:19;;;;;;;10.23;5.97;;;;;;;;;;1924069;74;21058;-51
2024/04/12 09:12:48;;;;;;;12.43;6.65;;;;;;;;;;1924211;74;21096;-51
2024/04/12 09:15:27;;;;;;;10.50;6.67;;;;;;;;;;1923805;74;21160;-50
2024/04/12 09:18:08;;;;;;;15.18;8.20;;;;;;;;;;1924234;74;21092;-50
2024/04/12 09:20:38;;;;;;;10.58;6.00;;;;;;;;;;1923624;74;21524;-51
2024/04/12 09:23:32;;;;;;;16.23;7.20;;;;;;;;;;1922016;74;20995;-52
2024/04/12 09:25:55;;;;;;;12.07;6.95;;;;;;;;;;1920213;74;21559;-52
2024/04/12 09:28:32;;;;;;;13.75;7.08;;;;;;;;;;1923847;74;21058;-52
2024/04/12 09:33:50;;;;;;;22.75;7.28;;;;;;;;;;1924004;74;21097;-50
2024/04/12 09:36:44;;;;;;;15.48;7.37;;;;;;;;;;1923867;74;21027;-50
2024/04/12 09:39:16;;;;;;;18.40;7.75;;;;;;;;;;1919715;74;21449;-52
2024/04/12 09:41:56;;;;;;;8.63;6.40;;;;;;;;;;1924193;74;21093;-54
2024/04/12 09:44:26;;;;;;;12.50;6.95;;;;;;;;;;1918300;74;21043;-52
2024/04/12 10:37:22;;;;;;;14.60;6.75;;;;;;;;;;1922434;74;21644;-54
2024/04/12 10:39:33;;;;;;;16.95;8.33;;;;;;;;;;1879638;75;21037;-54
2024/04/12 10:42:05;;;;;;;15.15;7.03;;;;;;;;;;1881634;75;21056;-53
2024/04/12 10:44:32;;;;;;;19.02;8.23;;;;;;;;;;1880059;75;21442;-54
2024/04/12 10:47:01;;;;;;;12.15;7.03;;;;;;;;;;1881363;75;21158;-51
2024/04/12 10:49:30;;;;;;;17.42;10.50;;;;;;;;;;1887221;75;21057;-53
2024/04/12 10:51:58;;;;;;;14.60;9.23;;;;;;;;;;1886364;75;21039;-54
2024/04/12 10:54:29;;;;;;;11.20;7.50;;;;;;;;;;1883582;75;21087;-53
2024/04/12 10:56:58;;;;;;;12.78;7.03;;;;;;;;;;1885123;75;21073;-55
2024/04/12 10:59:30;;;;;;;10.72;7.22;;;;;;;;;;1885961;75;21065;-55
2024/04/12 11:01:59;;;;;;;9.45;7.35;;;;;;;;;;1888637;75;21316;-54
2024/04/12 11:05:05;;;;;;;16.12;7.25;;;;;;;;;;1884400;75;21130;-54
2024/04/12 11:06:58;;;;;;;11.65;7.40;;;;;;;;;;1888232;75;21602;-56
2024/04/12 11:09:38;;;;;;;13.15;6.35;;;;;;;;;;1882487;75;21156;-55
2024/04/12 11:12:09;;;;;;;20.12;7.92;;;;;;;;;;1881061;75;21637;-56
2024/04/12 11:14:28;;;;;;;9.63;6.67;;;;;;;;;;1894179;74;21588;-54
2024/04/12 11:31:14;;;;;;;14.53;7.37;;;;;;;;;;1893372;75;21102;-51
2024/04/12 11:33:39;;;;;;;12.78;6.33;;;;;;;;;;1894226;75;21057;-51
2024/04/12 11:36:10;;;;;;;13.88;5.90;;;;;;;;;;1889637;75;21050;-52
2024/04/12 11:38:47;;;;;;;10.30;5.20;;;;;;;;;;1914183;75;20999;-52
2024/04/12 11:41:15;;;;;;;14.50;7.15;;;;;;;;;;1912087;75;21480;-49
2024/04/12 11:43:39;;;;;;;11.40;5.83;;;;;;;;;;1913048;75;21457;-52
2024/04/12 11:46:10;;;;;;;19.42;6.20;;;;;;;;;;1913709;75;21216;-54
2024/04/12 11:48:37;;;;;;;15.28;7.10;;;;;;;;;;1913990;74;21492;-52
2024/04/12 11:51:08;;;;;;;8.98;5.22;;;;;;;;;;1913932;75;21202;-49
2024/04/12 11:53:37;;;;;;;11.35;5.12;;;;;;;;;;1913837;75;21160;-54
2024/04/12 11:56:06;;;;;;;13.60;6.42;;;;;;;;;;1913683;75;21081;-54
2024/04/12 11:58:35;;;;;;;11.70;6.28;;;;;;;;;;1913552;75;21055;-54
2024/04/12 12:01:05;;;;;;;20.02;6.85;;;;;;;;;;1913969;75;21016;-53
2024/04/12 12:03:34;;;;;;;8.35;5.92;;;;;;;;;;1899344;75;21027;-52
2024/04/12 12:06:06;;;;;;;14.05;6.17;;;;;;;;;;1900661;75;21091;-53
2024/04/12 12:08:40;;;;;;;16.02;6.50;;;;;;;;;;1892867;75;21042;-53
2024/04/12 12:11:06;;;;;;;14.00;5.28;;;;;;;;;;1888412;75;21087;-54
2024/04/12 12:13:34;;;;;;;20.80;6.05;;;;;;;;;;1913630;75;21525;-53
2024/04/12 12:16:03;;;;;;;9.30;5.25;;;;;;;;;;1882297;75;21100;-53
2024/04/12 12:18:35;;;;;;;10.48;6.08;;;;;;;;;;1893536;75;21165;-52
2024/04/12 12:21:02;;;;;;;8.33;5.33;;;;;;;;;;1881384;75;21514;-52
2024/04/12 12:23:30;;;;;;;8.30;5.45;;;;;;;;;;1881493;76;21214;-52
2024/04/12 12:25:59;;;;;;;11.38;6.08;;;;;;;;;;1881429;76;21221;-52
2024/04/12 15:48:12;;;;;;;18.17;8.43;;;20.00;85.00;;;;;;1923766;74;21073;-53
2024/04/12 15:50:49;;;;;;;22.77;7.65;;;19.90;85.10;;;;;;1924337;74;21137;-53
2024/04/12 15:53:18;;;;;;;;;;;19.90;85.60;;;;;;1927051;74;21107;-53
2024/04/12 16:12:29;;;;;;;12.65;7.05;;;19.40;86.60;;;;;;1925181;74;21032;-51
2024/04/12 16:14:59;;;;;;;14.58;5.67;;;19.40;86.80;;;;;;1925118;74;21102;-49
2024/04/12 16:17:32;;;;;;;16.95;9.05;;;19.30;87.00;;;;;;1925097;74;21076;-49
2024/04/12 16:19:59;;;;;;;18.20;7.35;;;19.30;87.10;;;;;;1924801;73;21076;-49
2024/04/12 16:22:28;;;;;;;13.38;5.92;;;19.20;87.10;;;;;;1925036;74;21049;-51
2024/04/12 16:24:57;;;;;;;16.37;7.55;;;19.20;87.30;;;;;;1925110;74;21013;-50
2024/04/12 16:27:26;;;;;;;16.87;6.75;;;19.10;87.50;;;;;;1925065;74;21014;-50
2024/04/12 16:29:55;;;;;;;18.52;7.15;;;19.10;87.60;;;;;;1923541;74;21046;-49
2024/04/12 16:32:25;;;;;;;20.82;6.87;;;19.10;87.70;;;;;;1915579;75;21045;-49
2024/04/12 16:34:58;;;;;;;20.82;6.80;;;19.00;87.80;;;;;;1915395;75;21014;-49
2024/04/12 16:37:28;;;;;;;15.23;5.92;;;19.00;87.90;;;;;;1915746;75;21061;-51
2024/04/12 16:39:57;;;;;;;10.25;6.42;;;18.90;88.00;;;;;;1915489;75;21056;-49
2024/04/12 16:42:26;;;;;;;17.35;6.83;;;18.90;88.10;;;;;;1915071;75;21022;-49
2024/04/12 16:44:55;;;;;;;10.20;5.62;;;18.80;88.10;;;;;;1914889;75;21354;-49
2024/04/12 16:47:24;;;;;;;12.85;6.78;;;18.80;88.30;;;;;;1915009;75;21022;-50
2024/04/12 16:49:53;;;;;;;12.68;6.80;;;18.70;88.30;;;;;;1914895;75;21080;-52
2024/04/12 16:52:23;;;;;;;12.78;6.47;;;18.70;88.40;;;;;;1914977;75;21026;-49
2024/04/12 16:54:52;;;;;;;14.45;7.08;;;18.60;88.40;;;;;;1914846;75;21026;-49
2024/04/12 16:57:21;;;;;;;13.68;7.15;;;18.60;88.60;;;;;;1914971;75;21030;-49
2024/04/12 16:59:50;;;;;;;15.88;6.85;;;18.50;88.70;;;;;;1914861;75;21013;-48
2024/04/12 17:02:20;;;;;;;15.72;6.37;;;18.50;88.60;;;;;;1914932;75;21030;-49
2024/04/12 17:04:52;;;;;;;20.02;7.90;;;18.50;88.70;;;;;;1914876;75;21036;-49
2024/04/12 17:07:20;;;;;;;12.18;6.92;;;18.40;88.80;;;;;;1914898;74;21075;-49
2024/04/12 17:09:49;;;;;;;15.83;7.17;;;18.40;88.80;;;;;;1914915;75;21052;-48
2024/04/12 17:12:18;;;;;;;10.38;6.45;;;18.40;88.90;;;;;;1915011;75;21057;-49
2024/04/12 17:14:47;;;;;;;11.95;6.70;;;18.40;89.00;;;;;;1915007;75;21030;-52
2024/04/12 17:17:16;;;;;;;14.98;6.47;;;18.40;89.00;;;;;;1915007;75;21002;-49
2024/04/12 17:19:45;;;;;;;13.18;5.95;;;18.40;89.20;;;;;;1914970;75;21274;-49
2024/04/12 17:22:15;;;;;;;12.47;6.25;;;18.40;89.30;;;;;;1915094;75;21010;-51
2024/04/12 17:24:46;;;;;;;18.15;7.05;;;18.40;89.40;;;;;;1914882;75;21013;-49
2024/04/12 17:27:15;;;;;;;17.60;6.75;;;18.40;89.40;;;;;;1914916;75;21076;-50
2024/04/12 17:29:49;;;;;;;13.15;6.83;;;18.50;89.40;;;;;;1914874;75;21076;-49
2024/04/12 17:32:15;;;;;;;22.25;8.05;;;18.50;89.40;;;;;;1914613;74;21492;-50
2024/04/12 17:34:45;;;;;;;13.88;6.78;;;18.40;90.10;;;;;;1915092;75;21006;-50
2024/04/12 17:37:14;;;;;;;14.10;7.87;;;18.40;89.80;;;;;;1915026;75;21033;-50
2024/04/12 17:39:43;;;;;;;19.45;7.67;;;18.40;89.80;;;;;;1915004;75;20990;-49
2024/04/12 17:42:12;;;;;;;19.12;9.10;;;18.30;90.00;;;;;;1914977;75;21124;-49
2024/04/12 17:44:41;;;;;;;10.78;7.50;;;18.30;90.10;;;;;;1914961;75;21423;-51
2024/04/12 17:47:11;;;;;;;11.30;6.95;;;18.20;90.10;;;;;;1915000;75;21014;-51
2024/04/12 17:49:40;;;;;;;8.83;6.65;;;18.20;90.20;;;;;;1915015;75;21079;-50
2024/04/12 17:52:09;;;;;;;12.90;8.55;;;18.20;90.30;;;;;;1915105;74;21025;-52
2024/04/12 17:54:38;;;;;;;16.75;9.05;;;18.20;90.40;;;;;;1914913;75;21067;-51
2024/04/12 17:57:07;;;;;;;11.18;7.62;;;18.20;90.50;;;;;;1915037;75;21060;-49
2024/04/12 17:59:38;;;;;;;12.47;9.63;;;18.10;90.40;;;;;;1914980;74;21026;-51
2024/04/12 18:02:07;;;;;;;18.35;10.48;;;18.10;90.40;;;;;;1914693;75;21040;-49
2024/04/12 18:04:38;;;;;;;15.23;8.15;;;18.10;90.50;;;;;;1914884;75;21026;-51
2024/04/12 18:07:07;;;;;;;12.82;7.95;;;18.00;90.50;;;;;;1914711;75;21038;-49
2024/04/12 18:09:37;;;;;;;11.18;6.70;;;17.90;90.60;;;;;;1915000;75;21042;-50
2024/04/12 18:12:06;;;;;;;8.95;6.50;;;17.90;90.70;;;;;;1914943;74;20986;-49
2024/04/12 18:14:36;;;;;;;12.23;7.80;;;17.90;90.80;;;;;;1914968;75;21080;-50
2024/04/12 18:17:07;;;;;;;12.55;7.58;;;17.90;90.80;;;;;;1914916;75;21014;-50
2024/04/12 18:19:38;;;;;;;10.75;7.12;;;17.90;90.90;;;;;;1914983;75;21045;-51
2024/04/12 18:22:10;;;;;;;15.03;8.05;;;17.90;91.00;;;;;;1914960;75;21002;-52
2024/04/12 18:24:39;;;;;;;13.25;7.85;;;17.80;91.00;;;;;;1914941;75;21127;-51
2024/04/12 18:27:08;;;;;;;14.63;7.83;;;17.90;91.00;;;;;;1915067;75;21076;-50
2024/04/12 18:29:38;;;;;;;13.78;7.85;;;17.80;91.00;;;;;;1915062;75;21026;-51
2024/04/12 18:32:08;;;;;;;15.30;8.88;;;17.80;91.10;;;;;;1915014;74;21026;-50
2024/04/12 18:34:38;;;;;;;19.00;10.82;;;17.80;91.20;;;;;;1914992;75;21092;-52
2024/04/12 18:45:06;;;;;;;13.05;9.53;;;17.80;91.30;;;;;;1914921;74;21072;-51
2024/04/12 18:45:18;;;;;;;9.88;7.45;;;;;;;;;;1915011;74;21099;-49
2024/04/12 18:47:47;;;;;;;20.95;9.23;;;;;;;;;;1914943;75;21111;-49
2024/04/12 18:50:17;;;;;;;12.35;7.45;;;;;;;;;;1914998;74;21026;-48
2024/04/12 18:52:45;;;;;;;9.63;7.60;;;;;;;;;;1914964;75;21033;-49
2024/04/12 18:55:14;;;;;;;14.47;8.43;;;;;;;;;;1914884;75;20986;-51
2024/04/12 18:57:44;;;;;;;26.37;16.42;;;;;;;;;;1914768;75;21018;-50
2024/04/12 19:00:13;;;;;;;32.20;21.45;;;;;;;;;;1914893;75;21432;-49
2024/04/12 19:02:42;;;;;;;18.65;11.60;;;;;;;;;;1914930;75;21002;-49
2024/04/12 19:05:10;;;;;;;15.35;9.53;;;;;;;;;;1915042;75;21087;-51
2024/04/12 19:07:39;;;;;;;14.38;8.18;;;;;;;;;;1914918;75;21053;-48
2024/04/12 19:10:08;;;;;;;14.75;8.00;;;;;;;;;;1914855;74;21005;-49
2024/04/12 19:12:37;;;;;;;41.85;13.18;;;;;;;;;;1914837;75;21014;-50
2024/04/12 19:15:07;;;;;;;17.30;8.73;;;;;;;;;;1914860;75;21030;-51
2024/04/12 19:17:36;;;;;;;18.48;9.78;;;;;;;;;;1914909;75;21010;-49